sensor_id;sensor_type;location;lat;lon;timestamp;temperature;humidity
8402;DHT22;4238;48.404;9.498;2023-11-19T05:01:15;9.50;99.90
8402;DHT22;4238;48.404;9.498;2023-11-19T05:03:43;9.50;99.90
8402;DHT22;4238;48.404;9.498;2023-11-19T05:06:10;9.50;99.90
8402;DHT22;4238;48.404;9.498;2023-11-19T05:08:40;9.50;99.90
8402;DHT22;4238;48.404;9.498;2023-11-19T05:11:06;9.50;99.90
8402;DHT22;4238;48.404;9.498;2023-11-19T05:13:35;9.50;99.90
8402;DHT22;4238;48.404;9.498;2023-11-19T05:16:02;9.50;99.90
8402;DHT22;4238;48.404;9.498;2023-11-19T05:18:30;9.50;99.90
8402;DHT22;4238;48.404;9.498;2023-11-19T05:20:57;9.50;99.90
8402;DHT22;4238;48.404;9.498;2023-11-19T05:23:24;9.50;99.90
8402;DHT22;4238;48.404;9.498;2023-11-19T05:25:51;9.50;99.90
8402;DHT22;4238;48.404;9.498;2023-11-19T05:28:18;9.50;99.90
8402;DHT22;4238;48.404;9.498;2023-11-19T05:30:45;9.50;99.90
8402;DHT22;4238;48.404;9.498;2023-11-19T05:33:11;9.60;99.90
8402;DHT22;4238;48.404;9.498;2023-11-19T05:35:39;9.60;99.90
8402;DHT22;4238;48.404;9.498;2023-11-19T05:38:06;9.60;99.90
8402;DHT22;4238;48.404;9.498;2023-11-19T05:40:33;9.60;99.90
8402;DHT22;4238;48.404;9.498;2023-11-19T05:43:00;9.60;99.90
8402;DHT22;4238;48.404;9.498;2023-11-19T05:45:27;9.60;99.90
8402;DHT22;4238;48.404;9.498;2023-11-19T05:47:53;9.70;99.90
8402;DHT22;4238;48.404;9.498;2023-11-19T05:50:21;9.70;99.90
8402;DHT22;4238;48.404;9.498;2023-11-19T05:52:49;9.70;99.90
8402;DHT22;4238;48.404;9.498;2023-11-19T05:55:18;9.70;99.90
8402;DHT22;4238;48.404;9.498;2023-11-19T05:57:45;9.70;99.90
8402;DHT22;4238;48.404;9.498;2023-11-19T06:00:12;9.70;99.90
8402;DHT22;4238;48.404;9.498;2023-11-19T06:02:41;9.70;99.90
8402;DHT22;4238;48.404;9.498;2023-11-19T06:05:08;9.70;99.90
8402;DHT22;4238;48.404;9.498;2023-11-19T06:07:35;9.70;99.90
8402;DHT22;4238;48.404;9.498;2023-11-19T06:10:06;9.70;99.90
8402;DHT22;4238;48.404;9.498;2023-11-19T06:12:35;9.70;99.90
8402;DHT22;4238;48.404;9.498;2023-11-19T06:15:05;9.70;99.90
8402;DHT22;4238;48.404;9.498;2023-11-19T06:17:33;9.70;99.90
8402;DHT22;4238;48.404;9.498;2023-11-19T06:20:00;9.70;99.90
8402;DHT22;4238;48.404;9.498;2023-11-19T06:22:29;9.70;99.90
8402;DHT22;4238;48.404;9.498;2023-11-19T06:24:56;9.70;99.90
8402;DHT22;4238;48.404;9.498;2023-11-19T06:27:25;9.70;99.90
8402;DHT22;4238;48.404;9.498;2023-11-19T06:29:52;9.70;99.90
8402;DHT22;4238;48.404;9.498;2023-11-19T06:32:19;9.70;99.90
8402;DHT22;4238;48.404;9.498;2023-11-19T06:34:45;9.70;99.90
8402;DHT22;4238;48.404;9.498;2023-11-19T06:37:12;9.70;99.90
8402;DHT22;4238;48.404;9.498;2023-11-19T06:39:39;9.70;99.90
8402;DHT22;4238;48.404;9.498;2023-11-19T06:42:06;9.70;99.90
8402;DHT22;4238;48.404;9.498;2023-11-19T06:44:34;9.70;99.90
8402;DHT22;4238;48.404;9.498;2023-11-19T06:47:01;9.70;99.90
8402;DHT22;4238;48.404;9.498;2023-11-19T06:49:28;9.70;99.90
8402;DHT22;4238;48.404;9.498;2023-11-19T06:51:55;9.70;99.90
8402;DHT22;4238;48.404;9.498;2023-11-19T06:54:22;9.70;99.90
8402;DHT22;4238;48.404;9.498;2023-11-19T06:56:49;9.70;99.90
8402;DHT22;4238;48.404;9.498;2023-11-19T06:59:16;9.70;99.90
8402;DHT22;4238;48.404;9.498;2023-11-19T07:01:44;9.70;99.90
8402;DHT22;4238;48.404;9.498;2023-11-19T07:04:11;9.70;99.90
8402;DHT22;4238;48.404;9.498;2023-11-19T07:06:38;9.80;99.90
8402;DHT22;4238;48.404;9.498;2023-11-19T07:09:06;9.70;99.90
8402;DHT22;4238;48.404;9.498;2023-11-19T07:11:36;9.70;99.90
8402;DHT22;4238;48.404;9.498;2023-11-19T07:14:04;9.70;99.90
8402;DHT22;4238;48.404;9.498;2023-11-19T07:16:32;9.80;99.90
8402;DHT22;4238;48.404;9.498;2023-11-19T07:19:01;9.80;99.90
8402;DHT22;4238;48.404;9.498;2023-11-19T07:21:28;9.80;99.90
8402;DHT22;4238;48.404;9.498;2023-11-19T07:23:55;9.80;99.90
8402;DHT22;4238;48.404;9.498;2023-11-19T07:26:22;9.70;99.90
8402;DHT22;4238;48.404;9.498;2023-11-19T07:28:49;9.80;99.90
8402;DHT22;4238;48.404;9.498;2023-11-19T07:31:16;9.80;99.90
8402;DHT22;4238;48.404;9.498;2023-11-19T07:33:45;9.80;99.90
8402;DHT22;4238;48.404;9.498;2023-11-19T07:36:13;9.80;99.90
8402;DHT22;4238;48.404;9.498;2023-11-19T07:38:40;9.80;99.90
8402;DHT22;4238;48.404;9.498;2023-11-19T07:41:07;9.80;99.90
8402;DHT22;4238;48.404;9.498;2023-11-19T07:43:38;9.80;99.90
8402;DHT22;4238;48.404;9.498;2023-11-19T07:46:06;9.80;99.90
8402;DHT22;4238;48.404;9.498;2023-11-19T07:48:36;9.80;99.90
8402;DHT22;4238;48.404;9.498;2023-11-19T07:51:03;9.80;99.90
8402;DHT22;4238;48.404;9.498;2023-11-19T07:53:31;9.90;99.90
8402;DHT22;4238;48.404;9.498;2023-11-19T07:55:58;9.90;99.90
8402;DHT22;4238;48.404;9.498;2023-11-19T07:58:26;9.90;99.90
8402;DHT22;4238;48.404;9.498;2023-11-19T08:00:53;9.90;99.90
8402;DHT22;4238;48.404;9.498;2023-11-19T08:03:20;9.90;99.90
8402;DHT22;4238;48.404;9.498;2023-11-19T08:05:48;9.90;99.90
8402;DHT22;4238;48.404;9.498;2023-11-19T08:08:15;9.90;99.90
8402;DHT22;4238;48.404;9.498;2023-11-19T08:10:44;9.90;99.90
8402;DHT22;4238;48.404;9.498;2023-11-19T08:13:13;9.90;99.90
8402;DHT22;4238;48.404;9.498;2023-11-19T08:15:40;9.90;99.90
8402;DHT22;4238;48.404;9.498;2023-11-19T08:18:07;9.90;99.90
8402;DHT22;4238;48.404;9.498;2023-11-19T08:20:34;9.90;99.90
8402;DHT22;4238;48.404;9.498;2023-11-19T08:23:02;9.90;99.90
8402;DHT22;4238;48.404;9.498;2023-11-19T08:25:30;9.90;99.90
8402;DHT22;4238;48.404;9.498;2023-11-19T08:28:00;9.90;99.90
8402;DHT22;4238;48.404;9.498;2023-11-19T08:30:29;9.90;99.90
8402;DHT22;4238;48.404;9.498;2023-11-19T08:32:56;9.90;99.90
8402;DHT22;4238;48.404;9.498;2023-11-19T08:35:24;9.90;99.90
8402;DHT22;4238;48.404;9.498;2023-11-19T08:37:53;9.80;99.90
8402;DHT22;4238;48.404;9.498;2023-11-19T08:40:19;9.80;99.90
8402;DHT22;4238;48.404;9.498;2023-11-19T08:42:47;9.80;99.90
8402;DHT22;4238;48.404;9.498;2023-11-19T08:45:15;9.80;99.90
8402;DHT22;4238;48.404;9.498;2023-11-19T08:47:42;9.90;99.90
8402;DHT22;4238;48.404;9.498;2023-11-19T08:50:11;9.90;99.90
8402;DHT22;4238;48.404;9.498;2023-11-19T08:52:40;9.90;99.90
8402;DHT22;4238;48.404;9.498;2023-11-19T08:55:08;10.00;99.90
8402;DHT22;4238;48.404;9.498;2023-11-19T08:57:35;10.10;99.90
8402;DHT22;4238;48.404;9.498;2023-11-19T09:00:04;10.10;99.90
8402;DHT22;4238;48.404;9.498;2023-11-19T09:02:34;10.20;99.90
8402;DHT22;4238;48.404;9.498;2023-11-19T09:05:02;10.20;99.90
8402;DHT22;4238;48.404;9.498;2023-11-19T09:07:30;10.30;99.90
8402;DHT22;4238;48.404;9.498;2023-11-19T09:09:57;10.30;99.90
8402;DHT22;4238;48.404;9.498;2023-11-19T09:12:24;10.30;99.90
8402;DHT22;4238;48.404;9.498;2023-11-19T10:24:47;11.20;99.90
8402;DHT22;4238;48.404;9.498;2023-11-19T10:54:01;12.40;99.90
8402;DHT22;4238;48.404;9.498;2023-11-19T12:03:50;11.60;99.90
8402;DHT22;4238;48.404;9.498;2023-11-19T12:06:20;11.60;99.90
8402;DHT22;4238;48.404;9.498;2023-11-19T12:08:47;11.80;99.90
8402;DHT22;4238;48.404;9.498;2023-11-19T12:19:04;12.50;99.90
8402;DHT22;4238;48.404;9.498;2023-11-19T12:21:31;12.90;99.90
8402;DHT22;4238;48.404;9.498;2023-11-19T12:23:59;13.50;99.90
8402;DHT22;4238;48.404;9.498;2023-11-19T12:39:31;13.10;99.90
8402;DHT22;4238;48.404;9.498;2023-11-19T12:41:58;12.90;99.90
8402;DHT22;4238;48.404;9.498;2023-11-19T12:44:26;12.80;99.90
8402;DHT22;4238;48.404;9.498;2023-11-19T12:47:00;12.70;99.90
8402;DHT22;4238;48.404;9.498;2023-11-19T12:49:27;12.70;99.90
8402;DHT22;4238;48.404;9.498;2023-11-19T12:51:54;12.60;99.90
8402;DHT22;4238;48.404;9.498;2023-11-19T12:54:33;12.80;99.90
8402;DHT22;4238;48.404;9.498;2023-11-19T12:57:00;13.00;99.90
8402;DHT22;4238;48.404;9.498;2023-11-19T12:59:27;12.90;99.90
8402;DHT22;4238;48.404;9.498;2023-11-19T13:01:56;12.80;99.90
8402;DHT22;4238;48.404;9.498;2023-11-19T13:04:23;12.60;99.90
8402;DHT22;4238;48.404;9.498;2023-11-19T13:06:50;12.60;98.50
8402;DHT22;4238;48.404;9.498;2023-11-19T13:11:55;12.80;95.10
8402;DHT22;4238;48.404;9.498;2023-11-19T13:14:23;12.80;80.20
8402;DHT22;4238;48.404;9.498;2023-11-19T13:17:02;12.70;71.80
8402;DHT22;4238;48.404;9.498;2023-11-19T13:19:29;12.90;82.10
8402;DHT22;4238;48.404;9.498;2023-11-19T13:21:56;13.00;66.80
8402;DHT22;4238;48.404;9.498;2023-11-19T13:24:23;13.20;66.60
8402;DHT22;4238;48.404;9.498;2023-11-19T13:26:49;13.20;55.30
8402;DHT22;4238;48.404;9.498;2023-11-19T13:29:18;13.30;50.30
8402;DHT22;4238;48.404;9.498;2023-11-19T13:31:45;13.10;38.80
8402;DHT22;4238;48.404;9.498;2023-11-19T13:34:12;13.00;44.60
8402;DHT22;4238;48.404;9.498;2023-11-19T13:36:38;12.70;40.40
8402;DHT22;4238;48.404;9.498;2023-11-19T13:39:05;12.80;54.00
8402;DHT22;4238;48.404;9.498;2023-11-19T13:41:32;12.70;41.70
8402;DHT22;4238;48.404;9.498;2023-11-19T13:43:59;12.80;53.70
8402;DHT22;4238;48.404;9.498;2023-11-19T13:46:27;12.80;48.50
8402;DHT22;4238;48.404;9.498;2023-11-19T13:48:55;12.70;49.50
8402;DHT22;4238;48.404;9.498;2023-11-19T13:51:22;12.80;54.50
8402;DHT22;4238;48.404;9.498;2023-11-19T13:53:49;12.90;49.00
8402;DHT22;4238;48.404;9.498;2023-11-19T13:56:17;12.90;49.70
8402;DHT22;4238;48.404;9.498;2023-11-19T13:58:44;12.80;24.60
8402;DHT22;4238;48.404;9.498;2023-11-19T14:01:10;12.80;45.30
8402;DHT22;4238;48.404;9.498;2023-11-19T14:03:39;12.80;41.40
8402;DHT22;4238;48.404;9.498;2023-11-19T14:06:07;12.60;48.80
8402;DHT22;4238;48.404;9.498;2023-11-19T14:08:34;12.60;47.40
8402;DHT22;4238;48.404;9.498;2023-11-19T14:11:01;12.50;42.80
8402;DHT22;4238;48.404;9.498;2023-11-19T14:13:28;12.40;38.60
8402;DHT22;4238;48.404;9.498;2023-11-19T14:15:55;12.30;45.60
8402;DHT22;4238;48.404;9.498;2023-11-19T14:18:22;12.20;53.20
8402;DHT22;4238;48.404;9.498;2023-11-19T14:20:52;12.10;58.50
8402;DHT22;4238;48.404;9.498;2023-11-19T14:23:19;12.10;53.60
8402;DHT22;4238;48.404;9.498;2023-11-19T14:25:46;12.10;60.30
8402;DHT22;4238;48.404;9.498;2023-11-19T14:28:15;12.10;55.30
8402;DHT22;4238;48.404;9.498;2023-11-19T14:30:42;12.00;56.70
8402;DHT22;4238;48.404;9.498;2023-11-19T14:33:11;12.00;56.00
8402;DHT22;4238;48.404;9.498;2023-11-19T14:35:37;12.00;49.00
8402;DHT22;4238;48.404;9.498;2023-11-19T14:38:06;11.90;54.10
8402;DHT22;4238;48.404;9.498;2023-11-19T14:40:35;11.90;48.50
8402;DHT22;4238;48.404;9.498;2023-11-19T14:43:02;11.80;53.60
8402;DHT22;4238;48.404;9.498;2023-11-19T14:45:29;11.70;64.20
8402;DHT22;4238;48.404;9.498;2023-11-19T14:47:56;11.70;58.10
8402;DHT22;4238;48.404;9.498;2023-11-19T14:50:23;11.60;57.00
8402;DHT22;4238;48.404;9.498;2023-11-19T14:52:50;11.60;58.70
8402;DHT22;4238;48.404;9.498;2023-11-19T14:55:18;11.50;63.70
8402;DHT22;4238;48.404;9.498;2023-11-19T14:57:45;11.50;62.50
8402;DHT22;4238;48.404;9.498;2023-11-19T15:00:12;11.50;63.10
8402;DHT22;4238;48.404;9.498;2023-11-19T15:02:40;11.40;65.50
8402;DHT22;4238;48.404;9.498;2023-11-19T15:05:07;11.40;60.80
8402;DHT22;4238;48.404;9.498;2023-11-19T15:07:35;11.40;59.30
8402;DHT22;4238;48.404;9.498;2023-11-19T15:10:02;11.30;55.20
8402;DHT22;4238;48.404;9.498;2023-11-19T15:12:30;11.30;57.80
8402;DHT22;4238;48.404;9.498;2023-11-19T15:14:57;11.30;59.70
8402;DHT22;4238;48.404;9.498;2023-11-19T15:17:24;11.30;56.50
8402;DHT22;4238;48.404;9.498;2023-11-19T15:19:51;11.20;55.00
8402;DHT22;4238;48.404;9.498;2023-11-19T15:22:17;11.20;61.80
8402;DHT22;4238;48.404;9.498;2023-11-19T15:24:44;11.20;61.60
8402;DHT22;4238;48.404;9.498;2023-11-19T15:27:11;11.10;64.90
8402;DHT22;4238;48.404;9.498;2023-11-19T15:29:40;11.00;69.20
8402;DHT22;4238;48.404;9.498;2023-11-19T15:32:06;10.90;72.70
8402;DHT22;4238;48.404;9.498;2023-11-19T15:34:33;10.90;57.10
8402;DHT22;4238;48.404;9.498;2023-11-19T15:37:03;10.90;59.00
8402;DHT22;4238;48.404;9.498;2023-11-19T15:39:29;10.80;58.70
8402;DHT22;4238;48.404;9.498;2023-11-19T15:41:58;10.80;33.90
8402;DHT22;4238;48.404;9.498;2023-11-19T15:44:25;10.70;39.50
8402;DHT22;4238;48.404;9.498;2023-11-19T15:46:56;10.70;38.50
8402;DHT22;4238;48.404;9.498;2023-11-19T15:49:24;10.60;46.80
8402;DHT22;4238;48.404;9.498;2023-11-19T15:51:51;10.60;46.80
8402;DHT22;4238;48.404;9.498;2023-11-19T15:54:19;10.50;47.60
8402;DHT22;4238;48.404;9.498;2023-11-19T15:56:46;10.40;51.20
8402;DHT22;4238;48.404;9.498;2023-11-19T15:59:12;10.40;49.50
8402;DHT22;4238;48.404;9.498;2023-11-19T16:01:39;10.40;52.20
8402;DHT22;4238;48.404;9.498;2023-11-19T16:04:07;10.30;56.30
8402;DHT22;4238;48.404;9.498;2023-11-19T16:06:34;10.30;57.00
8402;DHT22;4238;48.404;9.498;2023-11-19T16:09:02;10.20;61.00
8402;DHT22;4238;48.404;9.498;2023-11-19T16:11:28;10.10;61.90
8402;DHT22;4238;48.404;9.498;2023-11-19T16:13:55;10.10;62.10
8402;DHT22;4238;48.404;9.498;2023-11-19T16:16:22;10.10;62.70
8402;DHT22;4238;48.404;9.498;2023-11-19T16:18:49;10.10;63.30
8402;DHT22;4238;48.404;9.498;2023-11-19T16:21:17;10.00;66.00
8402;DHT22;4238;48.404;9.498;2023-11-19T16:23:44;10.10;66.30
8402;DHT22;4238;48.404;9.498;2023-11-19T16:26:11;10.00;66.10
8402;DHT22;4238;48.404;9.498;2023-11-19T16:28:38;10.00;63.80
8402;DHT22;4238;48.404;9.498;2023-11-19T16:31:06;10.00;70.30
8402;DHT22;4238;48.404;9.498;2023-11-19T16:33:33;10.00;65.10
8402;DHT22;4238;48.404;9.498;2023-11-19T16:36:00;10.00;61.90
8402;DHT22;4238;48.404;9.498;2023-11-19T16:38:32;10.00;68.00
8402;DHT22;4238;48.404;9.498;2023-11-19T16:40:59;10.00;68.80
8402;DHT22;4238;48.404;9.498;2023-11-19T16:43:25;9.90;69.50
8402;DHT22;4238;48.404;9.498;2023-11-19T16:45:53;9.90;71.60
8402;DHT22;4238;48.404;9.498;2023-11-19T16:48:21;9.90;68.50
8402;DHT22;4238;48.404;9.498;2023-11-19T16:50:47;9.80;71.70
8402;DHT22;4238;48.404;9.498;2023-11-19T16:53:15;9.80;72.40
8402;DHT22;4238;48.404;9.498;2023-11-19T16:55:43;9.80;76.50
8402;DHT22;4238;48.404;9.498;2023-11-19T16:58:10;9.80;74.10
8402;DHT22;4238;48.404;9.498;2023-11-19T17:00:37;9.80;76.40
8402;DHT22;4238;48.404;9.498;2023-11-19T17:03:04;9.70;78.50
8402;DHT22;4238;48.404;9.498;2023-11-19T17:05:31;9.70;72.90
8402;DHT22;4238;48.404;9.498;2023-11-19T17:07:58;9.60;78.30
8402;DHT22;4238;48.404;9.498;2023-11-19T17:10:25;9.60;78.70
8402;DHT22;4238;48.404;9.498;2023-11-19T17:12:53;9.60;76.60
8402;DHT22;4238;48.404;9.498;2023-11-19T17:15:20;9.50;78.10
8402;DHT22;4238;48.404;9.498;2023-11-19T17:17:47;9.50;80.00
8402;DHT22;4238;48.404;9.498;2023-11-19T17:20:14;9.50;78.80
8402;DHT22;4238;48.404;9.498;2023-11-19T17:22:41;9.40;79.90
8402;DHT22;4238;48.404;9.498;2023-11-19T17:25:09;9.40;84.40
8402;DHT22;4238;48.404;9.498;2023-11-19T17:27:36;9.40;82.50
8402;DHT22;4238;48.404;9.498;2023-11-19T17:30:07;9.40;84.70
8402;DHT22;4238;48.404;9.498;2023-11-19T17:32:34;9.30;85.10
8402;DHT22;4238;48.404;9.498;2023-11-19T17:35:01;9.30;88.30
8402;DHT22;4238;48.404;9.498;2023-11-19T17:37:28;9.30;91.10
8402;DHT22;4238;48.404;9.498;2023-11-19T17:39:55;9.30;90.80
8402;DHT22;4238;48.404;9.498;2023-11-19T17:42:22;9.20;92.00
8402;DHT22;4238;48.404;9.498;2023-11-19T17:44:49;9.20;91.90
8402;DHT22;4238;48.404;9.498;2023-11-19T17:47:19;9.10;93.00
8402;DHT22;4238;48.404;9.498;2023-11-19T17:49:46;9.00;96.50
8402;DHT22;4238;48.404;9.498;2023-11-19T17:52:13;9.00;96.50
8402;DHT22;4238;48.404;9.498;2023-11-19T17:54:40;9.00;96.50
8402;DHT22;4238;48.404;9.498;2023-11-19T17:57:07;9.00;96.20
8402;DHT22;4238;48.404;9.498;2023-11-19T17:59:33;9.10;96.00
8402;DHT22;4238;48.404;9.498;2023-11-19T18:02:02;9.00;97.20
8402;DHT22;4238;48.404;9.498;2023-11-19T18:04:30;9.00;97.00
8402;DHT22;4238;48.404;9.498;2023-11-19T18:06:57;9.00;97.70
8402;DHT22;4238;48.404;9.498;2023-11-19T18:09:24;9.00;96.50
8402;DHT22;4238;48.404;9.498;2023-11-19T18:11:52;9.00;97.90
8402;DHT22;4238;48.404;9.498;2023-11-19T18:14:19;9.00;99.60
8402;DHT22;4238;48.404;9.498;2023-11-19T18:16:46;8.90;98.90
8402;DHT22;4238;48.404;9.498;2023-11-19T18:19:12;8.90;98.90
8402;DHT22;4238;48.404;9.498;2023-11-19T18:21:41;8.80;99.90
8402;DHT22;4238;48.404;9.498;2023-11-19T18:24:09;8.80;99.90
8402;DHT22;4238;48.404;9.498;2023-11-19T18:26:36;8.70;99.90
8402;DHT22;4238;48.404;9.498;2023-11-19T18:29:02;8.70;99.90
8402;DHT22;4238;48.404;9.498;2023-11-19T18:31:29;8.70;99.90
8402;DHT22;4238;48.404;9.498;2023-11-19T18:33:58;8.70;99.90
8402;DHT22;4238;48.404;9.498;2023-11-19T18:36:24;8.70;99.90
8402;DHT22;4238;48.404;9.498;2023-11-19T18:38:53;8.70;99.90
8402;DHT22;4238;48.404;9.498;2023-11-19T18:41:20;8.70;99.90
8402;DHT22;4238;48.404;9.498;2023-11-19T18:43:46;8.70;99.90
8402;DHT22;4238;48.404;9.498;2023-11-19T18:46:13;8.70;99.90
8402;DHT22;4238;48.404;9.498;2023-11-19T18:48:40;8.70;99.90
8402;DHT22;4238;48.404;9.498;2023-11-19T18:51:07;8.70;99.90
8402;DHT22;4238;48.404;9.498;2023-11-19T18:53:39;8.70;99.90
8402;DHT22;4238;48.404;9.498;2023-11-19T18:56:08;8.70;99.90
8402;DHT22;4238;48.404;9.498;2023-11-19T18:58:35;8.70;99.90
8402;DHT22;4238;48.404;9.498;2023-11-19T19:01:02;8.70;99.90
8402;DHT22;4238;48.404;9.498;2023-11-19T19:03:29;8.70;99.90
8402;DHT22;4238;48.404;9.498;2023-11-19T19:05:56;8.70;99.90
8402;DHT22;4238;48.404;9.498;2023-11-19T19:08:23;8.70;99.90
8402;DHT22;4238;48.404;9.498;2023-11-19T19:10:50;8.70;99.90
8402;DHT22;4238;48.404;9.498;2023-11-19T19:13:18;8.70;99.90
8402;DHT22;4238;48.404;9.498;2023-11-19T19:15:45;8.60;99.90
8402;DHT22;4238;48.404;9.498;2023-11-19T19:18:12;8.60;99.90
8402;DHT22;4238;48.404;9.498;2023-11-19T19:20:39;8.60;99.90
8402;DHT22;4238;48.404;9.498;2023-11-19T19:23:05;8.60;99.90
8402;DHT22;4238;48.404;9.498;2023-11-19T19:25:32;8.60;99.90
8402;DHT22;4238;48.404;9.498;2023-11-19T19:27:59;8.60;99.90
8402;DHT22;4238;48.404;9.498;2023-11-19T19:30:27;8.60;99.90
8402;DHT22;4238;48.404;9.498;2023-11-19T19:32:54;8.60;99.90
8402;DHT22;4238;48.404;9.498;2023-11-19T19:35:21;8.60;99.90
8402;DHT22;4238;48.404;9.498;2023-11-19T19:37:53;8.60;99.90
8402;DHT22;4238;48.404;9.498;2023-11-19T19:40:21;8.50;99.90
8402;DHT22;4238;48.404;9.498;2023-11-19T19:42:49;8.50;99.90
8402;DHT22;4238;48.404;9.498;2023-11-19T19:45:16;8.50;99.90
8402;DHT22;4238;48.404;9.498;2023-11-19T19:47:44;8.60;99.90
8402;DHT22;4238;48.404;9.498;2023-11-19T19:50:11;8.60;99.90
8402;DHT22;4238;48.404;9.498;2023-11-19T19:52:38;8.60;99.90
8402;DHT22;4238;48.404;9.498;2023-11-19T19:55:06;8.60;99.90
8402;DHT22;4238;48.404;9.498;2023-11-19T19:57:33;8.60;99.90
8402;DHT22;4238;48.404;9.498;2023-11-19T20:00:00;8.60;99.70
8402;DHT22;4238;48.404;9.498;2023-11-19T20:02:32;8.50;99.40
8402;DHT22;4238;48.404;9.498;2023-11-19T20:05:00;8.50;99.50
8402;DHT22;4238;48.404;9.498;2023-11-19T20:07:28;8.50;99.90
8402;DHT22;4238;48.404;9.498;2023-11-19T20:09:55;8.40;99.90
8402;DHT22;4238;48.404;9.498;2023-11-19T20:12:22;8.50;99.40
8402;DHT22;4238;48.404;9.498;2023-11-19T20:14:53;8.40;98.80
8402;DHT22;4238;48.404;9.498;2023-11-19T20:17:19;8.40;98.80
8402;DHT22;4238;48.404;9.498;2023-11-19T20:19:46;8.50;99.10
8402;DHT22;4238;48.404;9.498;2023-11-19T20:22:14;8.50;98.30
8402;DHT22;4238;48.404;9.498;2023-11-19T20:24:42;8.40;98.50
8402;DHT22;4238;48.404;9.498;2023-11-19T20:27:09;8.40;98.50
8402;DHT22;4238;48.404;9.498;2023-11-19T20:29:41;8.40;97.20
8402;DHT22;4238;48.404;9.498;2023-11-19T20:32:10;8.40;97.10
8402;DHT22;4238;48.404;9.498;2023-11-19T20:34:37;8.50;95.50
8402;DHT22;4238;48.404;9.498;2023-11-19T20:37:04;8.60;93.10
8402;DHT22;4238;48.404;9.498;2023-11-19T20:39:33;8.60;91.10
8402;DHT22;4238;48.404;9.498;2023-11-19T20:42:00;8.60;87.30
8402;DHT22;4238;48.404;9.498;2023-11-19T20:44:29;8.60;80.90
8402;DHT22;4238;48.404;9.498;2023-11-19T20:46:57;8.60;86.90
8402;DHT22;4238;48.404;9.498;2023-11-19T20:49:25;8.50;91.50
8402;DHT22;4238;48.404;9.498;2023-11-19T20:51:52;8.50;93.40
8402;DHT22;4238;48.404;9.498;2023-11-19T20:54:19;8.50;94.80
8402;DHT22;4238;48.404;9.498;2023-11-19T20:56:47;8.50;94.60
8402;DHT22;4238;48.404;9.498;2023-11-19T20:59:14;8.40;96.50
8402;DHT22;4238;48.404;9.498;2023-11-19T21:01:43;8.40;98.40
8402;DHT22;4238;48.404;9.498;2023-11-19T21:04:10;8.40;98.40
8402;DHT22;4238;48.404;9.498;2023-11-19T21:06:37;8.30;99.90
8402;DHT22;4238;48.404;9.498;2023-11-19T21:09:05;8.20;99.90
8402;DHT22;4238;48.404;9.498;2023-11-19T21:11:35;8.20;99.90
8402;DHT22;4238;48.404;9.498;2023-11-19T21:14:04;8.10;99.90
8402;DHT22;4238;48.404;9.498;2023-11-19T21:16:31;8.10;99.90
8402;DHT22;4238;48.404;9.498;2023-11-19T21:18:58;8.10;99.90
8402;DHT22;4238;48.404;9.498;2023-11-19T21:21:24;8.10;99.90
8402;DHT22;4238;48.404;9.498;2023-11-19T21:23:51;8.10;99.90
8402;DHT22;4238;48.404;9.498;2023-11-19T21:26:18;8.00;99.90
8402;DHT22;4238;48.404;9.498;2023-11-19T21:28:45;8.10;99.90
8402;DHT22;4238;48.404;9.498;2023-11-19T21:31:13;8.10;99.90
8402;DHT22;4238;48.404;9.498;2023-11-19T21:33:42;8.10;99.90
8402;DHT22;4238;48.404;9.498;2023-11-19T21:36:09;8.20;99.90
8402;DHT22;4238;48.404;9.498;2023-11-19T21:38:36;8.30;99.90
8402;DHT22;4238;48.404;9.498;2023-11-19T21:41:03;8.30;99.90
8402;DHT22;4238;48.404;9.498;2023-11-19T21:43:30;8.40;99.90
8402;DHT22;4238;48.404;9.498;2023-11-19T21:45:58;8.40;99.90
8402;DHT22;4238;48.404;9.498;2023-11-19T21:48:27;8.40;99.90
8402;DHT22;4238;48.404;9.498;2023-11-19T21:50:54;8.40;99.90
8402;DHT22;4238;48.404;9.498;2023-11-19T21:53:21;8.50;99.90
8402;DHT22;4238;48.404;9.498;2023-11-19T21:55:48;8.60;99.90
8402;DHT22;4238;48.404;9.498;2023-11-19T21:58:15;8.60;99.90
